createdAt,value
2023-04-01T00:01:07.020Z,99217.38
2023-04-01T00:03:34.335Z,99224.31
2023-04-01T00:06:01.582Z,99222.91
2023-04-01T00:08:28.043Z,99221.63
2023-04-01T00:10:55.031Z,99222.72
2023-04-01T00:13:21.997Z,99224.00
2023-04-01T00:15:48.759Z,99227.47
2023-04-01T00:18:15.236Z,99226.66
2023-04-01T00:20:46.730Z,99228.56
2023-04-01T00:23:14.452Z,99228.25
2023-04-01T00:25:40.881Z,99231.72
2023-04-01T00:28:07.238Z,99229.84
2023-04-01T00:30:33.803Z,99227.16
2023-04-01T00:33:00.680Z,99238.66
2023-04-01T00:35:27.171Z,99237.09
2023-04-01T00:37:53.550Z,99226.66
2023-04-01T00:40:45.674Z,99233.59
2023-04-01T00:43:13.863Z,99230.66
2023-04-01T00:45:43.314Z,99230.03
2023-04-01T00:48:14.169Z,99233.78
2023-04-01T00:50:43.855Z,99234.69
2023-04-01T00:53:11.737Z,99228.25
2023-04-01T00:55:42.501Z,99234.19
2023-04-01T00:58:15.359Z,99244.59
2023-04-01T01:00:42.732Z,99239.53
2023-04-01T01:03:09.377Z,99246.78
2023-04-01T01:06:05.254Z,99247.88
2023-04-01T01:08:59.048Z,99254.00
2023-04-01T01:11:43.176Z,99247.09
2023-04-01T01:14:22.899Z,99245.78
2023-04-01T01:16:57.532Z,99251.94
2023-04-01T01:19:49.253Z,99255.19
2023-04-01T01:22:28.883Z,99250.94
2023-04-01T01:25:31.705Z,99254.50
2023-04-01T01:28:16.027Z,99258.25
2023-04-01T01:30:58.150Z,99257.47
2023-04-01T01:33:47.836Z,99255.41
2023-04-01T01:36:17.180Z,99255.41
2023-04-01T01:38:44.938Z,99256.75
2023-04-01T01:41:16.493Z,99264.78
2023-04-01T01:43:48.621Z,99260.84
2023-04-01T01:46:20.327Z,99257.38
2023-04-01T01:48:48.454Z,99261.13
2023-04-01T01:51:15.651Z,99265.09
2023-04-01T01:53:42.064Z,99272.09
2023-04-01T01:56:09.060Z,99260.72
2023-04-01T01:58:44.550Z,99259.13
2023-04-01T02:01:15.905Z,99262.88
2023-04-01T02:03:44.179Z,99266.66
2023-04-01T02:06:13.642Z,99269.94
2023-04-01T02:08:52.715Z,99268.16
2023-04-01T02:11:25.273Z,99270.81
2023-04-01T02:13:54.695Z,99274.06
2023-04-01T02:16:30.691Z,99272.78
2023-04-01T02:18:59.120Z,99277.31
2023-04-01T02:21:31.110Z,99285.66
2023-04-01T02:24:01.425Z,99281.91
2023-04-01T02:26:28.094Z,99280.31
2023-04-01T02:28:56.332Z,99276.56
2023-04-01T02:31:24.427Z,99282.97
2023-04-01T02:33:51.146Z,99275.47
2023-04-01T02:36:18.360Z,99291.78
2023-04-01T02:38:47.564Z,99283.75
2023-04-01T02:41:14.237Z,99289.97
2023-04-01T02:43:40.667Z,99284.34
2023-04-01T02:46:07.440Z,99289.97
2023-04-01T02:48:33.850Z,99290.28
2023-04-01T02:51:00.348Z,99293.44
2023-04-01T02:53:26.808Z,99291.88
2023-04-01T02:55:53.383Z,99294.81
2023-04-01T02:58:20.207Z,99292.16
2023-04-01T03:00:46.702Z,99291.06
2023-04-01T03:03:14.405Z,99300.66
2023-04-01T03:05:41.282Z,99299.06
2023-04-01T03:08:07.752Z,99302.25
2023-04-01T03:10:34.136Z,99297.41
2023-04-01T03:13:00.632Z,99301.44
2023-04-01T03:15:27.170Z,99302.25
2023-04-01T03:17:53.673Z,99309.75
2023-04-01T03:20:20.390Z,99309.25
2023-04-01T03:22:47.627Z,99314.53
2023-04-01T03:25:14.143Z,99320.38
2023-04-01T03:27:40.613Z,99321.16
2023-04-01T03:30:08.262Z,99318.47
2023-04-01T03:32:34.689Z,99322.53
2023-04-01T03:35:01.105Z,99324.91
2023-04-01T03:37:27.551Z,99328.38
2023-04-01T03:39:54.053Z,99331.34
2023-04-01T03:42:20.735Z,99334.59
2023-04-01T03:44:47.109Z,99340.44
2023-04-01T03:47:13.475Z,99337.28
2023-04-01T03:49:39.886Z,99339.16
2023-04-01T03:52:10.043Z,99351.91
2023-04-01T03:54:36.477Z,99343.09
2023-04-01T03:57:02.917Z,99347.66
2023-04-01T03:59:29.289Z,99346.84
2023-04-01T04:01:55.917Z,99350.34
2023-04-01T04:04:22.618Z,99361.53
2023-04-01T04:06:49.154Z,99355.38
2023-04-01T04:09:15.640Z,99353.50
2023-04-01T04:11:42.006Z,99357.25
2023-04-01T04:14:08.432Z,99363.88
2023-04-01T04:16:37.437Z,99372.72
2023-04-01T04:19:04.767Z,99373.50
2023-04-01T04:21:31.220Z,99375.88
2023-04-01T04:23:57.618Z,99376.66
2023-04-01T04:26:23.975Z,99382.78
2023-04-01T04:28:50.599Z,99384.38
2023-04-01T04:31:24.443Z,99388.66
2023-04-01T04:33:52.314Z,99395.28
2023-04-01T04:36:19.514Z,99394.19
2023-04-01T04:38:46.046Z,99397.66
2023-04-01T04:41:18.915Z,99397.66
2023-04-01T04:43:54.764Z,99404.88
2023-04-01T04:46:22.067Z,99405.38
2023-04-01T04:48:48.900Z,99412.31
2023-04-01T04:51:17.320Z,99415.50
2023-04-01T04:53:43.904Z,99424.78
2023-04-01T04:56:10.445Z,99430.13
2023-04-01T04:58:38.047Z,99431.72
2023-04-01T05:01:12.627Z,99434.13
2023-04-01T05:03:39.539Z,99440.75
2023-04-01T05:06:07.470Z,99445.81
2023-04-01T05:08:34.035Z,99449.28
2023-04-01T05:11:02.192Z,99456.22
2023-04-01T05:13:29.525Z,99452.47
2023-04-01T05:15:56.408Z,99461.25
2023-04-01T05:18:23.229Z,99464.75
2023-04-01T05:20:51.565Z,99463.94
2023-04-01T05:23:18.770Z,99476.22
2023-04-01T05:25:46.300Z,99472.16
2023-04-01T05:28:12.789Z,99483.16
2023-04-01T05:30:42.616Z,99480.47
2023-04-01T05:33:10.397Z,99489.28
2023-04-01T05:35:37.154Z,99497.28
2023-04-01T05:38:04.474Z,99494.63
2023-04-01T05:40:31.569Z,99506.13
2023-04-01T05:42:58.938Z,99499.69
2023-04-01T05:45:25.498Z,99510.38
2023-04-01T05:47:51.981Z,99517.59
2023-04-01T05:50:18.655Z,99519.69
2023-04-01T05:52:45.807Z,99514.66
2023-04-01T05:55:12.342Z,99522.94
2023-04-01T05:57:38.741Z,99521.06
2023-04-01T06:00:05.848Z,99521.28
2023-04-01T06:02:32.550Z,99526.63
2023-04-01T06:05:36.790Z,99526.31
2023-04-01T06:08:11.535Z,99537.00
2023-04-01T06:10:50.172Z,99539.41
2023-04-01T06:13:37.396Z,99544.47
2023-04-01T06:16:34.611Z,99543.69
2023-04-01T06:19:12.015Z,99553.56
2023-04-01T06:21:56.637Z,99559.72
2023-04-01T06:24:28.762Z,99555.97
2023-04-01T06:27:24.324Z,99558.63
2023-04-01T06:30:25.595Z,99571.41
2023-04-01T06:33:02.058Z,99581.00
2023-04-01T06:35:47.380Z,99575.97
2023-04-01T06:38:22.634Z,99582.59
2023-04-01T06:41:07.772Z,99587.69
2023-04-01T06:44:01.000Z,99588.47
2023-04-01T06:46:45.676Z,99590.84
2023-04-01T06:49:36.526Z,99600.97
2023-04-01T06:52:22.459Z,99610.56
2023-04-01T06:55:10.298Z,99612.97
2023-04-01T06:57:44.848Z,99613.44
2023-04-01T07:00:31.004Z,99619.59
2023-04-01T07:03:08.618Z,99625.47
2023-04-01T07:05:36.611Z,99627.53
2023-04-01T07:08:07.562Z,99622.19
2023-04-01T07:10:43.838Z,99628.34
2023-04-01T07:13:31.751Z,99641.94
2023-04-01T07:16:12.500Z,99648.88
2023-04-01T07:18:54.296Z,99647.50
2023-04-01T07:21:27.593Z,99653.34
2023-04-01T07:23:58.091Z,99658.44
2023-04-01T07:26:25.491Z,99659.72
2023-04-01T07:28:54.344Z,99668.47
2023-04-01T07:31:55.006Z,99666.56
2023-04-01T07:34:43.416Z,99667.88
2023-04-01T07:37:14.279Z,99676.69
2023-04-01T07:39:53.621Z,99678.84
2023-04-01T07:42:34.955Z,99682.03
2023-04-01T07:45:10.350Z,99687.69
2023-04-01T07:47:57.576Z,99691.16
2023-04-01T07:50:30.548Z,99697.31
2023-04-01T07:53:28.727Z,99702.88
2023-04-01T07:55:59.945Z,99712.75
2023-04-01T07:58:40.242Z,99717.84
2023-04-01T08:01:18.677Z,99719.72
2023-04-01T08:03:53.961Z,99720.31
2023-04-01T08:06:54.040Z,99730.72
2023-04-01T08:09:47.610Z,99735.28
2023-04-01T08:12:26.538Z,99728.81
2023-04-01T08:15:17.011Z,99745.88
2023-04-01T08:18:01.306Z,99742.94
2023-04-01T08:20:48.745Z,99747.69
2023-04-01T08:23:25.672Z,99742.94
2023-04-01T08:26:03.732Z,99759.00
2023-04-01T08:28:42.492Z,99754.72
2023-04-01T08:31:32.206Z,99770.47
2023-04-01T08:33:58.960Z,99767.50
2023-04-01T08:36:28.086Z,99771.00
2023-04-01T08:38:58.092Z,99772.00
2023-04-01T08:41:42.637Z,99791.53
2023-04-01T08:44:27.245Z,99786.69
2023-04-01T08:47:17.864Z,99790.16
2023-04-01T08:50:03.121Z,99799.19
2023-04-01T08:52:35.719Z,99804.25
2023-04-01T08:55:28.401Z,99802.59
2023-04-01T08:58:36.325Z,99804.03
2023-04-01T09:01:39.964Z,99807.69
2023-04-01T09:04:32.641Z,99814.13
2023-04-01T09:07:28.170Z,99821.06
2023-04-01T09:10:04.211Z,99818.31
2023-04-01T09:12:46.703Z,99827.88
2023-04-01T09:15:31.959Z,99828.13
2023-04-01T09:18:36.167Z,99829.53
2023-04-01T09:21:29.406Z,99833.78
2023-04-01T09:24:26.975Z,99835.66
2023-04-01T09:27:17.092Z,99843.69
2023-04-01T09:30:02.716Z,99849.34
2023-04-01T09:32:53.378Z,99849.91
2023-04-01T09:35:41.942Z,99855.22
2023-04-01T09:38:31.902Z,99861.22
2023-04-01T09:41:15.962Z,99863.75
2023-04-01T09:44:04.612Z,99864.09
2023-04-01T09:46:51.328Z,99869.53
2023-04-01T09:49:46.601Z,99870.16
2023-04-01T09:52:27.997Z,99868.00
2023-04-01T09:55:16.104Z,99872.91
2023-04-01T09:57:48.311Z,99877.19
2023-04-01T10:00:57.208Z,99877.16
2023-04-01T10:03:29.955Z,99881.28
2023-04-01T10:06:30.228Z,99881.72
2023-04-01T10:09:12.893Z,99889.38
2023-04-01T10:12:20.706Z,99890.47
2023-04-01T10:15:12.184Z,99888.75
2023-04-01T10:18:14.138Z,99901.69
2023-04-01T10:21:15.821Z,99893.31
2023-04-01T10:24:00.612Z,99901.78
2023-04-01T10:26:52.064Z,99905.56
2023-04-01T10:29:29.270Z,99902.09
2023-04-01T10:32:04.610Z,99906.06
2023-04-01T10:34:55.715Z,99907.06
2023-04-01T10:37:34.210Z,99912.34
2023-04-01T10:40:03.920Z,99909.47
2023-04-01T10:43:07.565Z,99918.28
2023-04-01T10:45:53.316Z,99925.06
2023-04-01T10:48:49.553Z,99915.91
2023-04-01T10:51:25.215Z,99928.34
2023-04-01T10:54:09.798Z,99929.84
2023-04-01T10:56:45.829Z,99931.25
2023-04-01T10:59:34.068Z,99936.19
2023-04-01T11:02:28.310Z,99935.88
2023-04-01T11:05:28.747Z,99924.22
2023-04-01T11:08:17.102Z,99943.66
2023-04-01T11:10:52.790Z,99944.34
2023-04-01T11:13:31.265Z,99941.78
2023-04-01T11:16:38.169Z,99942.56
2023-04-01T11:19:39.568Z,99953.09
2023-04-01T11:22:50.664Z,99954.19
2023-04-01T11:25:59.203Z,99955.19
2023-04-01T11:28:58.927Z,99962.44
2023-04-01T11:31:37.436Z,99966.53
2023-04-01T11:34:30.943Z,99971.41
2023-04-01T11:37:33.982Z,99979.84
2023-04-01T11:40:07.002Z,99979.19
2023-04-01T11:43:33.473Z,99984.53
2023-04-01T11:46:16.227Z,99990.50
2023-04-01T11:49:05.053Z,99995.97
2023-04-01T11:52:00.709Z,99998.53
2023-04-01T11:54:51.825Z,100003.81
2023-04-01T11:57:34.342Z,100008.25
2023-04-01T12:00:25.482Z,100011.44
2023-04-01T12:03:19.240Z,100011.34
2023-04-01T12:06:12.360Z,100020.22
2023-04-01T12:08:54.501Z,100021.56
2023-04-01T12:11:40.356Z,100025.97
2023-04-01T12:14:34.455Z,100027.50
2023-04-01T12:17:25.186Z,100032.66
2023-04-01T12:20:13.275Z,100030.66
2023-04-01T12:22:56.504Z,100042.59
2023-04-01T12:25:25.670Z,100040.50
2023-04-01T12:28:11.702Z,100044.25
2023-04-01T12:30:52.473Z,100049.34
2023-04-01T12:33:40.298Z,100051.22
2023-04-01T12:36:28.446Z,100063.63
2023-04-01T12:39:21.232Z,100062.66
2023-04-01T12:42:00.117Z,100066.03
2023-04-01T12:44:36.545Z,100070.00
2023-04-01T12:47:21.915Z,100068.25
2023-04-01T12:50:18.867Z,100070.25
2023-04-01T12:53:04.052Z,100074.22
2023-04-01T12:55:38.762Z,100072.44
2023-04-01T12:58:23.829Z,100073.25
2023-04-01T13:01:15.975Z,100081.81
2023-04-01T13:03:42.322Z,100081.00
2023-04-01T13:06:26.938Z,100078.13
2023-04-01T13:09:35.044Z,100084.59
2023-04-01T13:12:17.515Z,100084.59
2023-04-01T13:15:07.146Z,100100.69
2023-04-01T13:17:38.201Z,100103.19
2023-04-01T13:20:10.624Z,100109.72
2023-04-01T13:22:52.697Z,100111.69
2023-04-01T13:25:37.306Z,100118.34
2023-04-01T13:28:11.090Z,100119.09
2023-04-01T13:30:44.070Z,100124.53
2023-04-01T13:33:20.796Z,100129.16
2023-04-01T13:35:56.176Z,100127.66
2023-04-01T13:38:28.504Z,100134.69
2023-04-01T13:41:15.751Z,100134.84
2023-04-01T13:43:52.674Z,100129.78
2023-04-01T13:46:25.174Z,100141.28
2023-04-01T13:49:21.255Z,100138.59
2023-04-01T13:51:59.521Z,100143.75
2023-04-01T13:54:37.884Z,100146.50
2023-04-01T13:57:30.218Z,100147.47
2023-04-01T14:00:23.370Z,100148.81
2023-04-01T14:03:20.407Z,100155.38
2023-04-01T14:05:57.202Z,100163.97
2023-04-01T14:08:43.971Z,100179.84
2023-04-01T14:11:30.226Z,100178.81
2023-04-01T14:14:25.977Z,100176.72
2023-04-01T14:17:03.431Z,100194.22
2023-04-01T14:20:09.335Z,100192.41
2023-04-01T14:22:47.687Z,100204.50
2023-04-01T14:25:23.216Z,100200.00
2023-04-01T14:28:01.843Z,100207.53
2023-04-01T14:30:47.563Z,100201.44
2023-04-01T14:33:39.177Z,100215.19
2023-04-01T14:36:44.281Z,100219.78
2023-04-01T14:39:13.647Z,100229.69
2023-04-01T14:42:08.757Z,100226.28
2023-04-01T14:44:56.491Z,100241.31
2023-04-01T14:48:01.220Z,100248.31
2023-04-01T14:50:41.987Z,100248.84
2023-04-01T14:53:08.301Z,100252.63
2023-04-01T14:55:48.974Z,100258.53
2023-04-01T14:58:18.210Z,100264.19
2023-04-01T15:01:18.626Z,100266.84
2023-04-01T15:04:36.090Z,100273.03
2023-04-01T15:07:33.159Z,100283.44
2023-04-01T15:10:20.331Z,100284.25
2023-04-01T15:13:14.063Z,100292.00
2023-04-01T15:15:48.777Z,100303.25
2023-04-01T15:18:28.268Z,100298.16
2023-04-01T15:21:14.307Z,100308.56
2023-04-01T15:23:52.543Z,100315.50
2023-04-01T15:26:27.398Z,100321.41
2023-04-01T15:28:59.356Z,100318.97
2023-04-01T15:31:46.278Z,100318.47
2023-04-01T15:34:39.495Z,100335.06
2023-04-01T15:37:28.200Z,100336.13
2023-04-01T15:39:54.632Z,100344.75
2023-04-01T15:42:42.643Z,100350.97
2023-04-01T15:45:17.701Z,100362.75
2023-04-01T15:47:54.353Z,100359.84
2023-04-01T15:50:37.637Z,100368.13
2023-04-01T15:53:22.663Z,100375.16
2023-04-01T15:55:54.987Z,100377.00
2023-04-01T15:58:57.896Z,100381.59
2023-04-01T16:01:58.674Z,100386.19
2023-04-01T16:04:46.996Z,100394.53
2023-04-01T16:07:37.714Z,100397.22
2023-04-01T16:10:34.854Z,100407.44
2023-04-01T16:13:13.380Z,100407.16
2023-04-01T16:16:00.980Z,100410.91
2023-04-01T16:18:49.799Z,100422.19
2023-04-01T16:21:36.740Z,100430.47
2023-04-01T16:24:36.719Z,100431.00
2023-04-01T16:27:12.402Z,100438.53
2023-04-01T16:29:52.745Z,100450.03
2023-04-01T16:32:37.863Z,100452.47
2023-04-01T16:35:35.499Z,100452.75
2023-04-01T16:38:33.322Z,100459.75
2023-04-01T16:41:08.758Z,100471.25
2023-04-01T16:43:49.441Z,100470.47
2023-04-01T16:46:16.280Z,100469.38
2023-04-01T16:49:09.598Z,100478.47
2023-04-01T16:51:42.129Z,100488.41
2023-04-01T16:54:26.599Z,100491.34
2023-04-01T16:57:02.631Z,100509.78
2023-04-01T17:00:09.111Z,100513.03
2023-04-01T17:02:44.150Z,100523.47
2023-04-01T17:05:14.139Z,100527.47
2023-04-01T17:07:55.827Z,100534.44
2023-04-01T17:10:45.955Z,100539.22
2023-04-01T17:13:36.160Z,100546.72
2023-04-01T17:16:08.454Z,100552.09
2023-04-01T17:18:42.316Z,100559.56
2023-04-01T17:21:14.533Z,100563.03
2023-04-01T17:23:51.935Z,100567.03
2023-04-01T17:26:28.454Z,100583.91
2023-04-01T17:29:05.058Z,100587.38
2023-04-01T17:31:47.901Z,100586.81
2023-04-01T17:34:26.464Z,100594.84
2023-04-01T17:36:55.775Z,100598.59
2023-04-01T17:39:30.714Z,100612.50
2023-04-01T17:42:22.094Z,100621.84
2023-04-01T17:44:48.402Z,100623.97
2023-04-01T17:47:23.585Z,100622.09
2023-04-01T17:50:08.454Z,100637.59
2023-04-01T17:52:38.833Z,100644.53
2023-04-01T17:55:27.026Z,100636.53
2023-04-01T17:57:59.966Z,100652.00
2023-04-01T18:00:54.133Z,100659.50
2023-04-01T18:03:55.573Z,100666.16
2023-04-01T18:06:27.116Z,100669.09
2023-04-01T18:09:22.602Z,100676.03
2023-04-01T18:12:07.186Z,100684.56
2023-04-01T18:14:55.365Z,100704.06
2023-04-01T18:17:55.426Z,100702.22
2023-04-01T18:20:40.673Z,100710.19
2023-04-01T18:23:06.980Z,100713.94
2023-04-01T18:25:43.444Z,100722.47
2023-04-01T18:28:32.036Z,100716.59
2023-04-01T18:31:06.709Z,100739.81
2023-04-01T18:33:43.864Z,100736.88
2023-04-01T18:36:19.398Z,100747.00
2023-04-01T18:38:53.267Z,100749.13
2023-04-01T18:41:50.440Z,100758.72
2023-04-01T18:44:55.905Z,100765.09
2023-04-01T18:48:18.117Z,100777.91
2023-04-01T18:50:49.046Z,100777.63
2023-04-01T18:53:39.585Z,100795.78
2023-04-01T18:56:09.671Z,100795.72
2023-04-01T18:58:47.959Z,100796.00
2023-04-01T19:01:39.014Z,100800.28
2023-04-01T19:04:42.265Z,100817.59
2023-04-01T19:07:30.233Z,100828.28
2023-04-01T19:10:02.779Z,100824.00
2023-04-01T19:12:31.778Z,100826.66
2023-04-01T19:15:22.870Z,100834.66
2023-04-01T19:18:42.625Z,100842.94
2023-04-01T19:21:13.576Z,100852.56
2023-04-01T19:24:14.093Z,100850.97
2023-04-01T19:27:17.057Z,100861.06
2023-04-01T19:30:17.272Z,100874.91
2023-04-01T19:33:06.901Z,100885.31
2023-04-01T19:35:48.234Z,100888.25
2023-04-01T19:39:04.494Z,100899.19
2023-04-01T19:41:48.656Z,100902.59
2023-04-01T19:44:27.171Z,100906.59
2023-04-01T19:47:06.067Z,100909.75
2023-04-01T19:50:00.682Z,100907.09
2023-04-01T19:52:39.653Z,100918.59
2023-04-01T19:55:24.443Z,100925.47
2023-04-01T19:58:09.051Z,100936.66
2023-04-01T20:00:45.540Z,100945.16
2023-04-01T20:03:36.962Z,100954.97
2023-04-01T20:06:12.558Z,100960.25
2023-04-01T20:08:51.065Z,100966.06
2023-04-01T20:11:17.381Z,100968.44
2023-04-01T20:14:05.829Z,100979.34
2023-04-01T20:16:51.504Z,100982.28
2023-04-01T20:19:29.243Z,100985.72
2023-04-01T20:22:01.249Z,100995.34
2023-04-01T20:24:34.745Z,100995.88
2023-04-01T20:27:11.551Z,101003.78
2023-04-01T20:29:45.984Z,101013.09
2023-04-01T20:32:33.760Z,101010.34
2023-04-01T20:35:06.838Z,101024.75
2023-04-01T20:37:58.802Z,101033.78
2023-04-01T20:40:36.295Z,101042.84
2023-04-01T20:43:11.921Z,101038.56
2023-04-01T20:45:57.911Z,101050.28
2023-04-01T20:48:45.440Z,101057.97
2023-04-01T20:51:16.609Z,101060.41
2023-04-01T20:54:03.934Z,101069.94
2023-04-01T20:56:48.828Z,101068.81
2023-04-01T20:59:17.946Z,101076.59
2023-04-01T21:01:53.309Z,101077.63
2023-04-01T21:04:31.679Z,101083.19
2023-04-01T21:07:19.130Z,101092.25
2023-04-01T21:10:12.420Z,101096.47
2023-04-01T21:13:13.744Z,101094.75
2023-04-01T21:15:59.652Z,101101.63
2023-04-01T21:18:47.670Z,101114.03
2023-04-01T21:21:36.066Z,101120.09
2023-04-01T21:24:49.658Z,101129.16
2023-04-01T21:27:27.777Z,101136.81
2023-04-01T21:30:24.146Z,101142.63
2023-04-01T21:32:56.382Z,101141.81
2023-04-01T21:35:47.664Z,101159.34
2023-04-01T21:38:26.008Z,101167.34
2023-04-01T21:41:14.741Z,101171.03
2023-04-01T21:43:58.567Z,101175.78
2023-04-01T21:47:04.842Z,101178.38
2023-04-01T21:49:53.103Z,101183.38
2023-04-01T21:52:31.993Z,101195.88
2023-04-01T21:55:23.345Z,101194.84
2023-04-01T21:58:02.025Z,101202.25
2023-04-01T22:00:54.361Z,101201.47
2023-04-01T22:03:58.481Z,101209.91
2023-04-01T22:06:37.135Z,101218.97
2023-04-01T22:09:11.341Z,101222.34
2023-04-01T22:12:05.587Z,101222.78
2023-04-01T22:15:01.486Z,101223.75
2023-04-01T22:17:42.765Z,101241.56
2023-04-01T22:20:39.896Z,101245.53
2023-04-01T22:23:31.075Z,101249.81
2023-04-01T22:26:07.575Z,101263.94
2023-04-01T22:28:52.728Z,101256.19
2023-04-01T22:31:38.348Z,101262.53
2023-04-01T22:34:15.166Z,101263.25
2023-04-01T22:36:57.700Z,101268.78
2023-04-01T22:39:46.905Z,101280.28
2023-04-01T22:42:25.228Z,101287.69
2023-04-01T22:45:27.286Z,101283.28
2023-04-01T22:48:02.433Z,101287.22
2023-04-01T22:50:50.583Z,101297.06
2023-04-01T22:53:36.217Z,101299.50
2023-04-01T22:56:08.126Z,101305.66
2023-04-01T22:58:39.069Z,101302.16
2023-04-01T23:01:14.290Z,101315.13
2023-04-01T23:03:42.932Z,101318.25
2023-04-01T23:06:25.642Z,101325.06
2023-04-01T23:09:18.290Z,101326.34
2023-04-01T23:11:50.277Z,101330.03
2023-04-01T23:14:24.276Z,101338.97
2023-04-01T23:17:00.707Z,101335.91
2023-04-01T23:19:45.915Z,101339.66
2023-04-01T23:22:44.511Z,101353.53
2023-04-01T23:25:32.652Z,101359.09
2023-04-01T23:28:26.475Z,101361.16
2023-04-01T23:30:53.475Z,101360.38
2023-04-01T23:33:19.941Z,101366.50
2023-04-01T23:35:49.663Z,101374.38
2023-04-01T23:38:17.402Z,101375.41
2023-04-01T23:40:44.141Z,101383.25
2023-04-01T23:43:29.333Z,101387.38
2023-04-01T23:45:56.869Z,101383.09
2023-04-01T23:48:47.246Z,101392.13
2023-04-01T23:51:32.427Z,101399.66
2023-04-01T23:54:18.556Z,101395.00
2023-04-01T23:56:49.195Z,101402.19
2023-04-01T23:59:24.237Z,101409.59
